sensor_id;sensor_type;location;lat;lon;timestamp;pressure;altitude;pressure_sealevel;temperature;humidity
58367;BME280;57745;42.524;12.052;2023-03-04T00:00:36;96176.78;;;12.55;50.53
58367;BME280;57745;42.524;12.052;2023-03-04T00:03:01;96178.66;;;12.67;50.25
58367;BME280;57745;42.524;12.052;2023-03-04T00:05:27;96176.06;;;12.64;50.49
58367;BME280;57745;42.524;12.052;2023-03-04T00:07:52;96176.56;;;12.49;50.36
58367;BME280;57745;42.524;12.052;2023-03-04T00:10:18;96172.97;;;12.52;50.44
58367;BME280;57745;42.524;12.052;2023-03-04T00:12:43;96175.63;;;12.65;50.14
58367;BME280;57745;42.524;12.052;2023-03-04T00:15:09;96174.78;;;12.46;51.12
58367;BME280;57745;42.524;12.052;2023-03-04T00:17:34;96179.28;;;12.49;51.18
58367;BME280;57745;42.524;12.052;2023-03-04T00:20:00;96167.28;;;12.59;49.89
58367;BME280;57745;42.524;12.052;2023-03-04T00:22:25;96179.50;;;12.55;50.58
58367;BME280;57745;42.524;12.052;2023-03-04T00:24:51;96177.25;;;12.63;50.70
58367;BME280;57745;42.524;12.052;2023-03-04T00:27:16;96185.50;;;12.50;50.04
58367;BME280;57745;42.524;12.052;2023-03-04T00:29:42;96174.81;;;12.55;50.45
58367;BME280;57745;42.524;12.052;2023-03-04T00:32:07;96178.41;;;12.52;50.34
58367;BME280;57745;42.524;12.052;2023-03-04T00:34:33;96178.94;;;12.38;51.47
58367;BME280;57745;42.524;12.052;2023-03-04T00:36:58;96183.72;;;12.56;50.14
58367;BME280;57745;42.524;12.052;2023-03-04T00:39:26;96182.66;;;12.53;50.89
58367;BME280;57745;42.524;12.052;2023-03-04T00:41:52;96173.03;;;12.62;50.65
58367;BME280;57745;42.524;12.052;2023-03-04T00:44:18;96170.38;;;12.71;50.34
58367;BME280;57745;42.524;12.052;2023-03-04T00:46:43;96176.25;;;12.69;50.32
58367;BME280;57745;42.524;12.052;2023-03-04T00:49:08;96182.47;;;12.48;50.70
58367;BME280;57745;42.524;12.052;2023-03-04T00:51:34;96173.16;;;12.58;50.04
58367;BME280;57745;42.524;12.052;2023-03-04T00:53:59;96179.28;;;12.49;50.60
58367;BME280;57745;42.524;12.052;2023-03-04T00:56:25;96167.91;;;12.64;49.74
58367;BME280;57745;42.524;12.052;2023-03-04T00:58:50;96171.81;;;12.63;50.02
58367;BME280;57745;42.524;12.052;2023-03-04T01:01:15;96173.69;;;12.44;50.43
58367;BME280;57745;42.524;12.052;2023-03-04T01:03:41;96179.28;;;12.49;50.36
58367;BME280;57745;42.524;12.052;2023-03-04T01:06:07;96172.72;;;12.59;50.18
58367;BME280;57745;42.524;12.052;2023-03-04T01:08:33;96166.69;;;12.65;49.68
58367;BME280;57745;42.524;12.052;2023-03-04T01:10:58;96165.41;;;12.47;50.73
58367;BME280;57745;42.524;12.052;2023-03-04T01:13:24;96166.00;;;12.51;50.45
58367;BME280;57745;42.524;12.052;2023-03-04T01:15:49;96166.28;;;12.44;50.41
58367;BME280;57745;42.524;12.052;2023-03-04T01:18:14;96168.69;;;12.42;50.25
58367;BME280;57745;42.524;12.052;2023-03-04T01:20:40;96167.84;;;12.54;50.18
58367;BME280;57745;42.524;12.052;2023-03-04T01:23:05;96166.84;;;12.39;50.92
58367;BME280;57745;42.524;12.052;2023-03-04T01:25:31;96163.38;;;12.61;50.54
58367;BME280;57745;42.524;12.052;2023-03-04T01:27:56;96163.63;;;12.53;50.74
58367;BME280;57745;42.524;12.052;2023-03-04T01:30:22;96158.03;;;12.57;50.38
58367;BME280;57745;42.524;12.052;2023-03-04T01:32:47;96168.69;;;12.42;50.88
58367;BME280;57745;42.524;12.052;2023-03-04T01:35:13;96166.53;;;12.37;50.04
58367;BME280;57745;42.524;12.052;2023-03-04T01:37:38;96164.19;;;12.48;50.27
58367;BME280;57745;42.524;12.052;2023-03-04T01:40:04;96151.72;;;12.38;50.74
58367;BME280;57745;42.524;12.052;2023-03-04T01:42:33;96158.75;;;12.27;51.00
58367;BME280;57745;42.524;12.052;2023-03-04T01:44:59;96145.91;;;12.49;50.85
58367;BME280;57745;42.524;12.052;2023-03-04T01:47:27;96142.69;;;12.41;51.36
58367;BME280;57745;42.524;12.052;2023-03-04T01:49:55;96149.44;;;12.58;50.75
58367;BME280;57745;42.524;12.052;2023-03-04T01:52:22;96141.75;;;12.35;51.13
58367;BME280;57745;42.524;12.052;2023-03-04T01:54:47;96140.94;;;12.47;51.34
58367;BME280;57745;42.524;12.052;2023-03-04T01:57:24;96132.09;;;12.65;50.50
58367;BME280;57745;42.524;12.052;2023-03-04T02:00:31;96130.13;;;12.66;50.60
58367;BME280;57745;42.524;12.052;2023-03-04T02:03:01;96130.09;;;12.56;49.96
58367;BME280;57745;42.524;12.052;2023-03-04T02:05:29;96133.53;;;12.48;51.11
58367;BME280;57745;42.524;12.052;2023-03-04T02:07:56;96125.56;;;12.63;50.55
58367;BME280;57745;42.524;12.052;2023-03-04T02:10:24;96127.94;;;12.51;50.04
58367;BME280;57745;42.524;12.052;2023-03-04T02:12:50;96124.84;;;12.40;51.06
58367;BME280;57745;42.524;12.052;2023-03-04T02:15:16;96117.91;;;12.39;50.82
58367;BME280;57745;42.524;12.052;2023-03-04T02:17:41;96119.47;;;12.49;50.68
58367;BME280;57745;42.524;12.052;2023-03-04T02:20:50;96128.84;;;12.27;50.92
58367;BME280;57745;42.524;12.052;2023-03-04T02:23:30;96124.44;;;12.20;51.37
58367;BME280;57745;42.524;12.052;2023-03-04T02:26:20;96117.84;;;12.30;51.41
58367;BME280;57745;42.524;12.052;2023-03-04T02:28:47;96113.09;;;12.43;50.70
58367;BME280;57745;42.524;12.052;2023-03-04T02:31:35;96122.25;;;12.37;50.73
58367;BME280;57745;42.524;12.052;2023-03-04T02:34:10;96112.28;;;12.34;51.32
58367;BME280;57745;42.524;12.052;2023-03-04T02:36:37;96115.09;;;12.21;50.59
58367;BME280;57745;42.524;12.052;2023-03-04T02:39:07;96111.41;;;12.15;51.21
58367;BME280;57745;42.524;12.052;2023-03-04T02:41:35;96114.78;;;12.50;50.65
58367;BME280;57745;42.524;12.052;2023-03-04T02:44:08;96107.94;;;12.36;50.86
58367;BME280;57745;42.524;12.052;2023-03-04T02:46:39;96106.44;;;12.44;50.90
58367;BME280;57745;42.524;12.052;2023-03-04T02:49:04;96109.75;;;12.39;51.28
58367;BME280;57745;42.524;12.052;2023-03-04T02:51:30;96115.47;;;12.32;50.73
58367;BME280;57745;42.524;12.052;2023-03-04T02:53:55;96109.69;;;12.30;51.07
58367;BME280;57745;42.524;12.052;2023-03-04T02:56:21;96106.56;;;12.41;50.92
58367;BME280;57745;42.524;12.052;2023-03-04T02:58:46;96103.53;;;12.39;50.87
58367;BME280;57745;42.524;12.052;2023-03-04T03:01:11;96110.34;;;12.34;50.37
58367;BME280;57745;42.524;12.052;2023-03-04T03:03:37;96109.41;;;12.37;51.01
58367;BME280;57745;42.524;12.052;2023-03-04T03:06:02;96102.78;;;12.38;50.79
58367;BME280;57745;42.524;12.052;2023-03-04T03:08:28;96102.19;;;12.34;51.19
58367;BME280;57745;42.524;12.052;2023-03-04T03:10:53;96100.66;;;12.33;51.13
58367;BME280;57745;42.524;12.052;2023-03-04T03:13:19;96092.63;;;12.30;51.84
58367;BME280;57745;42.524;12.052;2023-03-04T03:15:44;96102.03;;;12.38;51.67
58367;BME280;57745;42.524;12.052;2023-03-04T03:18:10;96098.69;;;12.34;51.49
58367;BME280;57745;42.524;12.052;2023-03-04T03:20:36;96098.63;;;12.46;50.86
58367;BME280;57745;42.524;12.052;2023-03-04T03:23:02;96097.31;;;12.29;51.51
58367;BME280;57745;42.524;12.052;2023-03-04T03:25:27;96099.53;;;12.21;51.63
58367;BME280;57745;42.524;12.052;2023-03-04T03:27:53;96096.13;;;12.39;51.43
58367;BME280;57745;42.524;12.052;2023-03-04T03:30:19;96092.81;;;12.35;51.48
58367;BME280;57745;42.524;12.052;2023-03-04T03:32:44;96097.09;;;12.45;51.10
58367;BME280;57745;42.524;12.052;2023-03-04T03:35:10;96100.72;;;12.51;51.54
58367;BME280;57745;42.524;12.052;2023-03-04T03:37:35;96102.41;;;12.27;51.71
58367;BME280;57745;42.524;12.052;2023-03-04T03:40:01;96095.81;;;12.37;51.27
58367;BME280;57745;42.524;12.052;2023-03-04T03:42:26;96092.53;;;12.42;51.24
58367;BME280;57745;42.524;12.052;2023-03-04T03:44:52;96088.63;;;12.43;51.23
58367;BME280;57745;42.524;12.052;2023-03-04T03:47:17;96094.06;;;12.43;51.06
58367;BME280;57745;42.524;12.052;2023-03-04T03:49:43;96097.66;;;12.40;51.09
58367;BME280;57745;42.524;12.052;2023-03-04T03:52:08;96096.50;;;12.50;50.95
58367;BME280;57745;42.524;12.052;2023-03-04T03:54:34;96091.22;;;12.25;51.59
58367;BME280;57745;42.524;12.052;2023-03-04T03:56:59;96084.00;;;12.22;52.00
58367;BME280;57745;42.524;12.052;2023-03-04T03:59:25;96083.22;;;12.21;51.18
58367;BME280;57745;42.524;12.052;2023-03-04T04:01:50;96090.78;;;12.27;51.58
58367;BME280;57745;42.524;12.052;2023-03-04T04:04:16;96090.97;;;12.32;51.56
58367;BME280;57745;42.524;12.052;2023-03-04T04:06:41;96085.84;;;12.34;51.41
58367;BME280;57745;42.524;12.052;2023-03-04T04:09:06;96091.44;;;12.31;51.13
58367;BME280;57745;42.524;12.052;2023-03-04T04:11:32;96085.91;;;12.43;50.80
58367;BME280;57745;42.524;12.052;2023-03-04T04:13:57;96076.41;;;12.17;51.59
58367;BME280;57745;42.524;12.052;2023-03-04T04:16:23;96074.91;;;12.25;51.72
58367;BME280;57745;42.524;12.052;2023-03-04T04:18:48;96081.66;;;12.42;51.20
58367;BME280;57745;42.524;12.052;2023-03-04T04:21:14;96081.88;;;12.26;51.95
58367;BME280;57745;42.524;12.052;2023-03-04T04:23:39;96085.84;;;12.34;51.69
58367;BME280;57745;42.524;12.052;2023-03-04T04:26:05;96089.53;;;12.18;51.75
58367;BME280;57745;42.524;12.052;2023-03-04T04:28:32;96086.94;;;12.15;51.58
58367;BME280;57745;42.524;12.052;2023-03-04T04:30:57;96088.06;;;12.27;51.25
58367;BME280;57745;42.524;12.052;2023-03-04T04:33:23;96095.56;;;12.44;50.90
58367;BME280;57745;42.524;12.052;2023-03-04T04:35:50;96089.72;;;12.24;51.42
58367;BME280;57745;42.524;12.052;2023-03-04T04:38:15;96088.81;;;12.27;51.13
58367;BME280;57745;42.524;12.052;2023-03-04T04:40:41;96085.34;;;12.27;51.10
58367;BME280;57745;42.524;12.052;2023-03-04T04:43:07;96089.91;;;12.30;51.14
58367;BME280;57745;42.524;12.052;2023-03-04T04:45:33;96086.63;;;12.35;51.37
58367;BME280;57745;42.524;12.052;2023-03-04T04:47:58;96097.88;;;12.24;51.50
58367;BME280;57745;42.524;12.052;2023-03-04T04:50:24;96098.63;;;12.24;51.19
58367;BME280;57745;42.524;12.052;2023-03-04T04:52:50;96104.78;;;12.16;51.46
58367;BME280;57745;42.524;12.052;2023-03-04T04:55:16;96105.66;;;12.13;51.32
58367;BME280;57745;42.524;12.052;2023-03-04T04:57:44;96105.09;;;12.18;51.68
58367;BME280;57745;42.524;12.052;2023-03-04T05:00:10;96100.38;;;12.40;51.29
58367;BME280;57745;42.524;12.052;2023-03-04T05:02:36;96112.78;;;12.41;51.31
58367;BME280;57745;42.524;12.052;2023-03-04T05:05:03;96108.09;;;12.42;51.16
58367;BME280;57745;42.524;12.052;2023-03-04T05:07:29;96110.47;;;12.31;51.13
58367;BME280;57745;42.524;12.052;2023-03-04T05:09:54;96111.41;;;12.15;51.68
58367;BME280;57745;42.524;12.052;2023-03-04T05:12:19;96112.28;;;12.34;51.03
58367;BME280;57745;42.524;12.052;2023-03-04T05:14:45;96123.94;;;12.34;50.84
58367;BME280;57745;42.524;12.052;2023-03-04T05:17:10;96118.66;;;12.09;51.24
58367;BME280;57745;42.524;12.052;2023-03-04T05:19:36;96115.72;;;12.03;51.37
58367;BME280;57745;42.524;12.052;2023-03-04T05:22:01;96122.72;;;12.13;51.43
58367;BME280;57745;42.524;12.052;2023-03-04T05:24:27;96112.38;;;12.21;51.12
58367;BME280;57745;42.524;12.052;2023-03-04T05:26:52;96121.41;;;12.18;51.31
58367;BME280;57745;42.524;12.052;2023-03-04T05:29:18;96120.16;;;12.10;51.19
58367;BME280;57745;42.524;12.052;2023-03-04T05:31:43;96124.44;;;12.20;51.15
58367;BME280;57745;42.524;12.052;2023-03-04T05:34:09;96118.28;;;11.98;51.79
58367;BME280;57745;42.524;12.052;2023-03-04T05:36:34;96112.81;;;12.19;51.26
58367;BME280;57745;42.524;12.052;2023-03-04T05:39:00;96127.63;;;11.97;52.03
58367;BME280;57745;42.524;12.052;2023-03-04T05:41:25;96125.97;;;12.21;51.06
58367;BME280;57745;42.524;12.052;2023-03-04T05:43:51;96128.31;;;12.10;51.76
58367;BME280;57745;42.524;12.052;2023-03-04T05:46:17;96126.56;;;12.25;51.23
58367;BME280;57745;42.524;12.052;2023-03-04T05:48:50;96141.59;;;12.08;51.80
58367;BME280;57745;42.524;12.052;2023-03-04T05:51:15;96134.44;;;12.23;50.94
58367;BME280;57745;42.524;12.052;2023-03-04T05:53:41;96143.66;;;12.26;50.84
58367;BME280;57745;42.524;12.052;2023-03-04T05:56:08;96137.78;;;12.27;51.66
58367;BME280;57745;42.524;12.052;2023-03-04T05:58:34;96144.91;;;12.12;51.68
58367;BME280;57745;42.524;12.052;2023-03-04T06:00:59;96148.44;;;12.00;51.58
58367;BME280;57745;42.524;12.052;2023-03-04T06:03:25;96144.31;;;12.08;51.53
58367;BME280;57745;42.524;12.052;2023-03-04T06:05:52;96149.78;;;12.17;51.48
58367;BME280;57745;42.524;12.052;2023-03-04T06:08:18;96152.00;;;12.31;50.84
58367;BME280;57745;42.524;12.052;2023-03-04T06:10:43;96151.44;;;12.14;51.62
58367;BME280;57745;42.524;12.052;2023-03-04T06:13:09;96148.97;;;12.29;51.29
58367;BME280;57745;42.524;12.052;2023-03-04T06:15:36;96152.50;;;12.17;51.49
58367;BME280;57745;42.524;12.052;2023-03-04T06:18:02;96154.72;;;12.31;51.11
58367;BME280;57745;42.524;12.052;2023-03-04T06:20:27;96164.53;;;12.07;51.73
58367;BME280;57745;42.524;12.052;2023-03-04T06:22:53;96168.06;;;12.16;51.75
58367;BME280;57745;42.524;12.052;2023-03-04T06:25:18;96168.81;;;12.17;51.50
58367;BME280;57745;42.524;12.052;2023-03-04T06:27:43;96168.19;;;12.13;51.73
58367;BME280;57745;42.524;12.052;2023-03-04T06:30:09;96168.50;;;12.15;51.75
58367;BME280;57745;42.524;12.052;2023-03-04T06:32:35;96174.75;;;12.03;52.23
58367;BME280;57745;42.524;12.052;2023-03-04T06:35:00;96170.47;;;12.14;52.13
58367;BME280;57745;42.524;12.052;2023-03-04T06:37:26;96179.44;;;12.24;51.64
58367;BME280;57745;42.524;12.052;2023-03-04T06:39:51;96175.41;;;12.07;52.57
58367;BME280;57745;42.524;12.052;2023-03-04T06:42:17;96177.94;;;12.23;51.72
58367;BME280;57745;42.524;12.052;2023-03-04T06:44:43;96172.19;;;12.21;51.90
58367;BME280;57745;42.524;12.052;2023-03-04T06:47:09;96179.91;;;12.22;52.42
58367;BME280;57745;42.524;12.052;2023-03-04T06:49:35;96173.25;;;12.23;51.63
58367;BME280;57745;42.524;12.052;2023-03-04T06:52:00;96180.94;;;12.03;52.19
58367;BME280;57745;42.524;12.052;2023-03-04T06:54:26;96184.00;;;12.27;52.03
58367;BME280;57745;42.524;12.052;2023-03-04T06:56:51;96186.72;;;12.27;51.70
58367;BME280;57745;42.524;12.052;2023-03-04T06:59:16;96188.41;;;12.12;52.29
58367;BME280;57745;42.524;12.052;2023-03-04T07:01:42;96187.16;;;12.04;52.70
58367;BME280;57745;42.524;12.052;2023-03-04T07:04:07;96189.53;;;12.02;52.38
58367;BME280;57745;42.524;12.052;2023-03-04T07:06:33;96188.63;;;12.17;52.55
58367;BME280;57745;42.524;12.052;2023-03-04T07:08:59;96188.72;;;12.14;52.50
58367;BME280;57745;42.524;12.052;2023-03-04T07:11:25;96191.00;;;12.37;51.58
58367;BME280;57745;42.524;12.052;2023-03-04T07:13:51;96195.50;;;12.31;51.89
58367;BME280;57745;42.524;12.052;2023-03-04T07:16:20;96190.44;;;12.20;52.40
58367;BME280;57745;42.524;12.052;2023-03-04T07:18:46;96193.94;;;12.21;52.54
58367;BME280;57745;42.524;12.052;2023-03-04T07:21:12;96192.59;;;12.47;51.57
58367;BME280;57745;42.524;12.052;2023-03-04T07:23:38;96195.75;;;12.24;52.17
58367;BME280;57745;42.524;12.052;2023-03-04T07:26:04;96195.25;;;12.38;52.55
58367;BME280;57745;42.524;12.052;2023-03-04T07:28:30;96206.00;;;12.42;52.10
58367;BME280;57745;42.524;12.052;2023-03-04T07:30:55;96203.34;;;12.51;52.14
58367;BME280;57745;42.524;12.052;2023-03-04T07:33:21;96203.22;;;12.33;52.88
58367;BME280;57745;42.524;12.052;2023-03-04T07:35:46;96199.16;;;12.37;52.58
58367;BME280;57745;42.524;12.052;2023-03-04T07:38:12;96206.66;;;12.46;52.69
58367;BME280;57745;42.524;12.052;2023-03-04T07:40:37;96210.44;;;12.27;53.18
58367;BME280;57745;42.524;12.052;2023-03-04T07:43:03;96204.47;;;12.63;52.56
58367;BME280;57745;42.524;12.052;2023-03-04T07:45:29;96208.66;;;12.54;52.18
58367;BME280;57745;42.524;12.052;2023-03-04T07:47:54;96212.69;;;12.50;52.59
58367;BME280;57745;42.524;12.052;2023-03-04T07:50:21;96211.88;;;12.40;52.82
58367;BME280;57745;42.524;12.052;2023-03-04T07:52:48;96214.22;;;12.51;52.37
58367;BME280;57745;42.524;12.052;2023-03-04T07:55:16;96211.31;;;12.45;52.82
58367;BME280;57745;42.524;12.052;2023-03-04T07:57:45;96220.75;;;12.53;52.39
58367;BME280;57745;42.524;12.052;2023-03-04T08:00:13;96216.38;;;12.34;52.97
58367;BME280;57745;42.524;12.052;2023-03-04T08:02:40;96213.53;;;12.38;52.85
58367;BME280;57745;42.524;12.052;2023-03-04T08:05:06;96217.91;;;12.57;53.04
58367;BME280;57745;42.524;12.052;2023-03-04T08:07:32;96218.34;;;12.55;52.26
58367;BME280;57745;42.524;12.052;2023-03-04T08:09:57;96217.38;;;12.71;52.91
58367;BME280;57745;42.524;12.052;2023-03-04T08:12:25;96222.00;;;12.62;52.90
58367;BME280;57745;42.524;12.052;2023-03-04T08:14:51;96212.91;;;12.55;52.64
58367;BME280;57745;42.524;12.052;2023-03-04T08:17:17;96217.09;;;12.47;52.75
58367;BME280;57745;42.524;12.052;2023-03-04T08:19:43;96216.88;;;12.64;52.84
58367;BME280;57745;42.524;12.052;2023-03-04T08:22:08;96215.06;;;12.61;53.24
58367;BME280;57745;42.524;12.052;2023-03-04T08:24:33;96220.09;;;12.49;53.59
58367;BME280;57745;42.524;12.052;2023-03-04T08:26:59;96217.13;;;12.56;53.15
58367;BME280;57745;42.524;12.052;2023-03-04T08:29:25;96215.97;;;12.67;52.46
58367;BME280;57745;42.524;12.052;2023-03-04T08:31:52;96215.66;;;12.65;52.10
58367;BME280;57745;42.524;12.052;2023-03-04T08:34:20;96220.16;;;12.80;52.35
58367;BME280;57745;42.524;12.052;2023-03-04T08:36:46;96209.53;;;12.73;52.95
58367;BME280;57745;42.524;12.052;2023-03-04T08:39:13;96217.88;;;12.79;52.37
58367;BME280;57745;42.524;12.052;2023-03-04T08:41:39;96208.53;;;12.89;52.10
58367;BME280;57745;42.524;12.052;2023-03-04T08:44:05;96214.56;;;12.84;52.37
58367;BME280;57745;42.524;12.052;2023-03-04T08:46:32;96209.25;;;12.80;52.39
58367;BME280;57745;42.524;12.052;2023-03-04T08:48:58;96206.59;;;12.99;51.88
58367;BME280;57745;42.524;12.052;2023-03-04T08:51:24;96213.50;;;12.81;52.07
58367;BME280;57745;42.524;12.052;2023-03-04T08:53:49;96207.94;;;13.16;51.07
58367;BME280;57745;42.524;12.052;2023-03-04T08:56:15;96204.06;;;13.04;52.08
58367;BME280;57745;42.524;12.052;2023-03-04T08:58:41;96197.88;;;13.04;51.70
58367;BME280;57745;42.524;12.052;2023-03-04T09:01:09;96199.09;;;13.12;51.75
58367;BME280;57745;42.524;12.052;2023-03-04T09:03:35;96199.72;;;13.07;52.26
58367;BME280;57745;42.524;12.052;2023-03-04T09:06:02;96203.59;;;12.97;52.50
58367;BME280;57745;42.524;12.052;2023-03-04T09:08:28;96201.72;;;13.15;52.04
58367;BME280;57745;42.524;12.052;2023-03-04T09:10:54;96203.56;;;13.18;52.40
58367;BME280;57745;42.524;12.052;2023-03-04T09:13:20;96201.19;;;13.29;52.27
58367;BME280;57745;42.524;12.052;2023-03-04T09:15:47;96194.66;;;13.27;52.13
58367;BME280;57745;42.524;12.052;2023-03-04T09:18:14;96209.09;;;13.46;51.71
58367;BME280;57745;42.524;12.052;2023-03-04T09:20:40;96204.97;;;13.32;53.03
58367;BME280;57745;42.524;12.052;2023-03-04T09:23:06;96210.13;;;13.48;52.62
58367;BME280;57745;42.524;12.052;2023-03-04T09:25:34;96207.38;;;13.30;53.15
58367;BME280;57745;42.524;12.052;2023-03-04T09:27:59;96203.66;;;13.55;51.96
58367;BME280;57745;42.524;12.052;2023-03-04T09:30:25;96201.84;;;13.52;53.06
58367;BME280;57745;42.524;12.052;2023-03-04T09:32:50;96210.03;;;13.61;52.57
58367;BME280;57745;42.524;12.052;2023-03-04T09:35:16;96212.91;;;13.57;52.77
58367;BME280;57745;42.524;12.052;2023-03-04T09:37:41;96209.13;;;13.64;52.54
58367;BME280;57745;42.524;12.052;2023-03-04T09:40:10;96206.72;;;13.66;52.69
58367;BME280;57745;42.524;12.052;2023-03-04T09:42:50;96207.34;;;13.70;52.34
58367;BME280;57745;42.524;12.052;2023-03-04T09:45:19;96208.84;;;13.71;52.86
58367;BME280;57745;42.524;12.052;2023-03-04T09:47:47;96206.13;;;13.89;52.41
58367;BME280;57745;42.524;12.052;2023-03-04T09:50:14;96204.94;;;13.90;52.11
58367;BME280;57745;42.524;12.052;2023-03-04T09:55:44;96203.84;;;13.79;52.36
58367;BME280;57745;42.524;12.052;2023-03-04T10:01:03;96197.66;;;13.78;52.92
58367;BME280;57745;42.524;12.052;2023-03-04T10:03:44;96199.75;;;13.74;53.14
58367;BME280;57745;42.524;12.052;2023-03-04T10:06:19;96202.97;;;13.82;52.67
58367;BME280;57745;42.524;12.052;2023-03-04T10:11:33;96201.59;;;13.86;52.89
58367;BME280;57745;42.524;12.052;2023-03-04T10:21:50;96202.50;;;13.92;52.61
58367;BME280;57745;42.524;12.052;2023-03-04T10:24:25;96204.78;;;13.94;52.38
58367;BME280;57745;42.524;12.052;2023-03-04T10:27:01;96204.31;;;13.86;52.51
58367;BME280;57745;42.524;12.052;2023-03-04T10:29:30;96205.53;;;14.22;51.82
58367;BME280;57745;42.524;12.052;2023-03-04T10:31:57;96204.78;;;14.12;52.16
58367;BME280;57745;42.524;12.052;2023-03-04T10:34:22;96206.88;;;13.99;52.06
58367;BME280;57745;42.524;12.052;2023-03-04T10:39:34;96194.63;;;14.13;52.03
58367;BME280;57745;42.524;12.052;2023-03-04T10:42:03;96202.66;;;13.98;52.09
58367;BME280;57745;42.524;12.052;2023-03-04T10:44:29;96193.56;;;13.83;52.67
58367;BME280;57745;42.524;12.052;2023-03-04T10:46:56;96186.78;;;13.96;52.51
58367;BME280;57745;42.524;12.052;2023-03-04T10:49:23;96190.41;;;14.21;51.77
58367;BME280;57745;42.524;12.052;2023-03-04T10:52:00;96195.84;;;14.21;51.41
58367;BME280;57745;42.524;12.052;2023-03-04T10:54:41;96192.66;;;14.04;51.79
58367;BME280;57745;42.524;12.052;2023-03-04T10:57:16;96188.13;;;14.19;51.94
58367;BME280;57745;42.524;12.052;2023-03-04T10:59:47;96187.22;;;14.31;51.42
58367;BME280;57745;42.524;12.052;2023-03-04T11:07:50;96164.34;;;14.20;51.66
58367;BME280;57745;42.524;12.052;2023-03-04T11:13:32;96169.16;;;14.25;51.39
58367;BME280;57745;42.524;12.052;2023-03-04T11:18:12;96166.59;;;14.12;51.41
58367;BME280;57745;42.524;12.052;2023-03-04T11:20:44;96162.19;;;14.24;51.42
58367;BME280;57745;42.524;12.052;2023-03-04T11:23:19;96155.22;;;14.32;51.33
58367;BME280;57745;42.524;12.052;2023-03-04T11:25:55;96150.66;;;14.38;50.93
58367;BME280;57745;42.524;12.052;2023-03-04T11:29:11;96151.75;;;14.31;51.17
58367;BME280;57745;42.524;12.052;2023-03-04T11:34:45;96150.34;;;14.36;50.96
58367;BME280;57745;42.524;12.052;2023-03-04T11:37:26;96149.13;;;14.37;51.32
58367;BME280;57745;42.524;12.052;2023-03-04T11:39:58;96139.63;;;14.14;50.89
58367;BME280;57745;42.524;12.052;2023-03-04T11:42:43;96141.28;;;14.30;51.00
58367;BME280;57745;42.524;12.052;2023-03-04T11:45:24;96140.19;;;14.36;50.79
58367;BME280;57745;42.524;12.052;2023-03-04T11:48:08;96137.47;;;14.36;50.53
58367;BME280;57745;42.524;12.052;2023-03-04T11:51:00;96126.75;;;14.33;50.55
58367;BME280;57745;42.524;12.052;2023-03-04T11:59:47;96127.94;;;14.23;50.21
58367;BME280;57745;42.524;12.052;2023-03-04T12:02:21;96119.13;;;14.37;49.99
58367;BME280;57745;42.524;12.052;2023-03-04T12:10:54;96100.81;;;14.28;49.13
58367;BME280;57745;42.524;12.052;2023-03-04T12:13:54;96093.22;;;14.51;48.93
58367;BME280;57745;42.524;12.052;2023-03-04T12:19:29;96095.03;;;14.35;49.40
58367;BME280;57745;42.524;12.052;2023-03-04T12:25:02;96083.44;;;14.08;49.88
58367;BME280;57745;42.524;12.052;2023-03-04T12:30:00;96074.34;;;14.20;50.52
58367;BME280;57745;42.524;12.052;2023-03-04T12:32:39;96080.38;;;14.33;49.44
58367;BME280;57745;42.524;12.052;2023-03-04T12:38:23;96072.91;;;14.52;50.10
58367;BME280;57745;42.524;12.052;2023-03-04T12:43:50;96061.28;;;14.33;49.63
58367;BME280;57745;42.524;12.052;2023-03-04T12:54:51;96051.69;;;14.47;48.63
58367;BME280;57745;42.524;12.052;2023-03-04T12:57:23;96052.44;;;14.38;49.41
58367;BME280;57745;42.524;12.052;2023-03-04T13:10:46;96044.31;;;14.29;47.62
58367;BME280;57745;42.524;12.052;2023-03-04T13:13:34;96043.94;;;14.54;48.93
58367;BME280;57745;42.524;12.052;2023-03-04T13:16:02;96047.28;;;14.49;48.68
58367;BME280;57745;42.524;12.052;2023-03-04T13:18:37;96049.41;;;14.54;48.68
58367;BME280;57745;42.524;12.052;2023-03-04T13:21:27;96038.69;;;14.42;49.33
58367;BME280;57745;42.524;12.052;2023-03-04T13:23:53;96037.31;;;14.46;48.43
58367;BME280;57745;42.524;12.052;2023-03-04T13:28:52;96034.69;;;14.52;48.91
58367;BME280;57745;42.524;12.052;2023-03-04T13:31:23;96051.69;;;14.37;48.58
58367;BME280;57745;42.524;12.052;2023-03-04T13:33:54;96043.03;;;14.48;48.15
58367;BME280;57745;42.524;12.052;2023-03-04T13:41:49;96034.84;;;14.57;48.89
58367;BME280;57745;42.524;12.052;2023-03-04T13:47:15;96033.34;;;14.47;49.09
58367;BME280;57745;42.524;12.052;2023-03-04T13:49:41;96032.41;;;14.50;48.55
58367;BME280;57745;42.524;12.052;2023-03-04T13:52:39;96033.34;;;14.38;49.76
58367;BME280;57745;42.524;12.052;2023-03-04T13:55:37;96035.50;;;14.43;49.55
58367;BME280;57745;42.524;12.052;2023-03-04T13:58:21;96031.75;;;14.64;49.38
58367;BME280;57745;42.524;12.052;2023-03-04T14:00:51;96026.97;;;14.50;49.46
58367;BME280;57745;42.524;12.052;2023-03-04T14:03:28;96030.13;;;14.58;48.96
58367;BME280;57745;42.524;12.052;2023-03-04T14:08:42;96027.31;;;14.43;47.83
58367;BME280;57745;42.524;12.052;2023-03-04T14:11:18;96024.88;;;14.45;47.05
58367;BME280;57745;42.524;12.052;2023-03-04T14:13:48;96028.47;;;14.51;47.66
58367;BME280;57745;42.524;12.052;2023-03-04T14:16:19;96030.03;;;14.43;47.60
58367;BME280;57745;42.524;12.052;2023-03-04T14:18:45;96020.59;;;14.53;48.44
58367;BME280;57745;42.524;12.052;2023-03-04T14:21:13;96016.41;;;14.43;47.67
58367;BME280;57745;42.524;12.052;2023-03-04T14:23:40;96012.47;;;14.44;48.08
58367;BME280;57745;42.524;12.052;2023-03-04T14:26:12;96018.31;;;14.52;47.53
58367;BME280;57745;42.524;12.052;2023-03-04T14:28:50;96014.03;;;14.60;47.90